Asahi Maru No.8 — JI3547 — position and weather

sailwx.info

Track history (hours):
 
Tides and Currents Weather Stations Pressure Air Temp Water Temp Dewpoint Dewpoint Depression Visibility Wind Speed Wind Dir Waves Ship Positions

Asahi Maru No.8

Last reported at 2018-Jul-18 06:06 UTC. Time now 2018-Jul-18 06:52 UTC.
Position N 34°34' E 135°21'.

Length 67 m.

Type: Tanker. MMSI: 431300304.

Date/timePositionNaut miles runAvg speedWind from/ knotsBaromVisibWave heightAir tempDewpointWater temp
2018-Jul-18 06:06N 34°34' E 135°21'211.4
2018-Jul-18 05:58N 34°36' E 135°20'511.2
2018-Jul-18 05:30N 34°40' E 135°16'2 4.1
2018-Jul-18 04:53N 34°42' E 135°14'0 0.0
2018-Jul-18 04:21N 34°42' E 135°14'0 0.0
2018-Jul-18 03:59N 34°42' E 135°14'0 0.0
2018-Jul-18 03:23N 34°42' E 135°14'0 0.0
2018-Jul-18 02:29N 34°42' E 135°14'3 5.6
2018-Jul-18 02:00N 34°39' E 135°16'5 9.5
2018-Jul-18 01:29N 34°36' E 135°20'5 0.4
2018-Jul-17 12:04N 34°33' E 135°25'110.2
2018-Jul-17 11:56N 34°34' E 135°24'511.3
2018-Jul-17 11:29N 34°34' E 135°17'511.3
2018-Jul-17 11:00N 34°34' E 135°11'2211.9
2018-Jul-17 09:09N 34°32' E 134°44'311.8
2018-Jul-17 08:56N 34°31' E 134°41'611.8
2018-Jul-17 08:27N 34°29' E 134°35'25 0.9
2018-Jul-16 03:48N 34°10' E 134°54'3 9.1
2018-Jul-16 03:29N 34°09' E 134°57'9 2.2
2018-Jul-15 23:30N 34°07' E 135°08'0 0.0
2018-Jul-15 05:26N 34°08' E 135°08'510.5
2018-Jul-15 05:00N 34°12' E 135°05'611.2
2018-Jul-15 04:29N 34°17' E 135°04'612.0
2018-Jul-15 04:00N 34°23' E 135°04'611.4
2018-Jul-15 03:30N 34°29' E 135°04'611.1
2018-Jul-15 02:57N 34°35' E 135°03'2 0.1
2018-Jul-14 06:02N 34°36' E 135°04'1 6.5
2018-Jul-14 05:52N 34°36' E 135°05'3 8.9
2018-Jul-14 05:30N 34°36' E 135°09'4 9.0
2018-Jul-14 05:00N 34°35' E 135°14'5 9.2
2018-Jul-14 04:30N 34°34' E 135°20'2 0.1
2018-Jul-13 01:31N 34°34' E 135°22'211.1
2018-Jul-13 01:18N 34°36' E 135°20'311.0
2018-Jul-13 01:00N 34°39' E 135°18'0 0.8
2018-Jul-13 00:27N 34°39' E 135°18'0 0.0
2018-Jul-12 23:51N 34°39' E 135°18'0 0.0
2018-Jul-12 23:21N 34°39' E 135°18'0 0.0
2018-Jul-12 22:51N 34°39' E 135°18'0 0.0
2018-Jul-12 22:27N 34°39' E 135°18'0 0.1
2018-Jul-12 22:00N 34°39' E 135°18'0 0.1
2018-Jul-12 21:12N 34°39' E 135°18'0 0.0
2018-Jul-12 21:00N 34°39' E 135°18'0 0.1
2018-Jul-12 20:26N 34°39' E 135°18'1 0.9
2018-Jul-12 19:53N 34°39' E 135°17'0 0.0
2018-Jul-12 19:27N 34°39' E 135°17'0 0.0
2018-Jul-12 18:57N 34°39' E 135°17'0 0.0
2018-Jul-12 18:27N 34°39' E 135°17'0 0.0
2018-Jul-12 17:57N 34°39' E 135°17'0 0.0
2018-Jul-12 17:29N 34°39' E 135°17'0 0.0
2018-Jul-12 16:59N 34°39' E 135°17'0 0.1
2018-Jul-12 16:29N 34°39' E 135°17'0 0.0
2018-Jul-12 15:53N 34°39' E 135°17'0 0.0
2018-Jul-12 15:29N 34°39' E 135°17'0 0.1
2018-Jul-12 14:59N 34°39' E 135°17'0 0.1
2018-Jul-12 14:29N 34°39' E 135°17'0 0.1
2018-Jul-12 13:59N 34°39' E 135°17'0 0.0
2018-Jul-12 13:29N 34°39' E 135°17'0 0.0
2018-Jul-12 12:53N 34°39' E 135°17'0 0.0
2018-Jul-12 12:29N 34°39' E 135°17'0 0.0
2018-Jul-12 11:53N 34°39' E 135°17'0 0.0
2018-Jul-12 11:23N 34°39' E 135°17'0 0.0
2018-Jul-12 10:59N 34°39' E 135°17'0 0.0
2018-Jul-12 10:29N 34°39' E 135°17'0 0.0
2018-Jul-12 09:58N 34°39' E 135°17'3 6.6
2018-Jul-12 09:28N 34°37' E 135°20'6 2.4
2018-Jul-12 07:01N 34°33' E 135°26'1 8.6
2018-Jul-12 06:53N 34°33' E 135°24'411.2
2018-Jul-12 06:30N 34°31' E 135°20'511.1
2018-Jul-12 06:00N 34°28' E 135°15'610.5
2018-Jul-12 05:25N 34°24' E 135°09'410.7
2018-Jul-12 05:00N 34°20' E 135°06'4 8.9
2018-Jul-12 04:30N 34°16' E 135°03'510.3
2018-Jul-12 04:00N 34°11' E 135°05'3 0.1
2018-Jul-11 10:18N 34°09' E 135°06'3 9.1
2018-Jul-11 09:58N 34°12' E 135°05'5 8.7
2018-Jul-11 09:24N 34°16' E 135°03'4 8.9
2018-Jul-11 09:00N 34°20' E 135°05'22 9.3
2018-Jul-11 06:41N 34°35' E 135°23'1 7.5
2018-Jul-11 06:30N 34°36' E 135°24'2 1.7
2018-Jul-11 05:19N 34°34' E 135°26'0 0.0
2018-Jul-11 04:03N 34°34' E 135°26'0 0.0
2018-Jul-11 03:57N 34°34' E 135°26'2 0.7
2018-Jul-11 01:36N 34°36' E 135°25'4 0.2
2018-Jul-10 03:25N 34°35' E 135°20'511.1
2018-Jul-10 03:00N 34°39' E 135°16'3 5.2
2018-Jul-10 02:21N 34°42' E 135°15'0 0.0
2018-Jul-10 01:49N 34°42' E 135°15'0 0.0
2018-Jul-10 01:30N 34°42' E 135°15'0 0.0
2018-Jul-10 00:56N 34°42' E 135°15'0 0.0
2018-Jul-10 00:10N 34°42' E 135°15'0 0.0
2018-Jul-09 23:58N 34°42' E 135°15'0 0.0
2018-Jul-09 23:30N 34°42' E 135°15'0 0.4
2018-Jul-09 23:00N 34°42' E 135°15'4 8.1
2018-Jul-09 22:30N 34°38' E 135°17'8 0.2
2018-Jul-08 06:30N 34°31' E 135°20'  
Track history (hours):
 
Tides and Currents Weather Stations Pressure Air Temp Water Temp Dewpoint Dewpoint Depression Visibility Wind Speed Wind Dir Waves Ship Positions

Asahi Maru No.8

Last reported at 2018-Jul-18 06:06 UTC. Time now 2018-Jul-18 06:52 UTC.
Position N 34°34' E 135°21'.

Length 67 m.

Type: Tanker. MMSI: 431300304.

Date/timePositionNaut miles runAvg speedWind from/ knotsBaromVisibWave heightAir tempDewpointWater temp
2018-Jul-18 06:06N 34°34' E 135°21'211.4
2018-Jul-18 05:58N 34°36' E 135°20'511.2
2018-Jul-18 05:30N 34°40' E 135°16'2 4.1
2018-Jul-18 04:53N 34°42' E 135°14'0 0.0
2018-Jul-18 04:21N 34°42' E 135°14'0 0.0
2018-Jul-18 03:59N 34°42' E 135°14'0 0.0
2018-Jul-18 03:23N 34°42' E 135°14'0 0.0
2018-Jul-18 02:29N 34°42' E 135°14'3 5.6
2018-Jul-18 02:00N 34°39' E 135°16'5 9.5
2018-Jul-18 01:29N 34°36' E 135°20'5 0.4
2018-Jul-17 12:04N 34°33' E 135°25'110.2
2018-Jul-17 11:56N 34°34' E 135°24'511.3
2018-Jul-17 11:29N 34°34' E 135°17'511.3
2018-Jul-17 11:00N 34°34' E 135°11'2211.9
2018-Jul-17 09:09N 34°32' E 134°44'311.8
2018-Jul-17 08:56N 34°31' E 134°41'611.8
2018-Jul-17 08:27N 34°29' E 134°35'25 0.9
2018-Jul-16 03:48N 34°10' E 134°54'3 9.1
2018-Jul-16 03:29N 34°09' E 134°57'9 2.2
2018-Jul-15 23:30N 34°07' E 135°08'0 0.0
2018-Jul-15 05:26N 34°08' E 135°08'510.5
2018-Jul-15 05:00N 34°12' E 135°05'611.2
2018-Jul-15 04:29N 34°17' E 135°04'612.0
2018-Jul-15 04:00N 34°23' E 135°04'611.4
2018-Jul-15 03:30N 34°29' E 135°04'611.1
2018-Jul-15 02:57N 34°35' E 135°03'2 0.1
2018-Jul-14 06:02N 34°36' E 135°04'1 6.5
2018-Jul-14 05:52N 34°36' E 135°05'3 8.9
2018-Jul-14 05:30N 34°36' E 135°09'4 9.0
2018-Jul-14 05:00N 34°35' E 135°14'5 9.2
2018-Jul-14 04:30N 34°34' E 135°20'2 0.1
2018-Jul-13 01:31N 34°34' E 135°22'211.1
2018-Jul-13 01:18N 34°36' E 135°20'311.0
2018-Jul-13 01:00N 34°39' E 135°18'0 0.8
2018-Jul-13 00:27N 34°39' E 135°18'0 0.0
2018-Jul-12 23:51N 34°39' E 135°18'0 0.0
2018-Jul-12 23:21N 34°39' E 135°18'0 0.0
2018-Jul-12 22:51N 34°39' E 135°18'0 0.0
2018-Jul-12 22:27N 34°39' E 135°18'0 0.1
2018-Jul-12 22:00N 34°39' E 135°18'0 0.1
2018-Jul-12 21:12N 34°39' E 135°18'0 0.0
2018-Jul-12 21:00N 34°39' E 135°18'0 0.1
2018-Jul-12 20:26N 34°39' E 135°18'1 0.9
2018-Jul-12 19:53N 34°39' E 135°17'0 0.0
2018-Jul-12 19:27N 34°39' E 135°17'0 0.0
2018-Jul-12 18:57N 34°39' E 135°17'0 0.0
2018-Jul-12 18:27N 34°39' E 135°17'0 0.0
2018-Jul-12 17:57N 34°39' E 135°17'0 0.0
2018-Jul-12 17:29N 34°39' E 135°17'0 0.0
2018-Jul-12 16:59N 34°39' E 135°17'0 0.1
2018-Jul-12 16:29N 34°39' E 135°17'0 0.0
2018-Jul-12 15:53N 34°39' E 135°17'0 0.0
2018-Jul-12 15:29N 34°39' E 135°17'0 0.1
2018-Jul-12 14:59N 34°39' E 135°17'0 0.1
2018-Jul-12 14:29N 34°39' E 135°17'0 0.1
2018-Jul-12 13:59N 34°39' E 135°17'0 0.0
2018-Jul-12 13:29N 34°39' E 135°17'0 0.0
2018-Jul-12 12:53N 34°39' E 135°17'0 0.0
2018-Jul-12 12:29N 34°39' E 135°17'0 0.0
2018-Jul-12 11:53N 34°39' E 135°17'0 0.0
2018-Jul-12 11:23N 34°39' E 135°17'0 0.0
2018-Jul-12 10:59N 34°39' E 135°17'0 0.0
2018-Jul-12 10:29N 34°39' E 135°17'0 0.0
2018-Jul-12 09:58N 34°39' E 135°17'3 6.6
2018-Jul-12 09:28N 34°37' E 135°20'6 2.4
2018-Jul-12 07:01N 34°33' E 135°26'1 8.6
2018-Jul-12 06:53N 34°33' E 135°24'411.2
2018-Jul-12 06:30N 34°31' E 135°20'511.1
2018-Jul-12 06:00N 34°28' E 135°15'610.5
2018-Jul-12 05:25N 34°24' E 135°09'410.7
2018-Jul-12 05:00N 34°20' E 135°06'4 8.9
2018-Jul-12 04:30N 34°16' E 135°03'510.3
2018-Jul-12 04:00N 34°11' E 135°05'3 0.1
2018-Jul-11 10:18N 34°09' E 135°06'3 9.1
2018-Jul-11 09:58N 34°12' E 135°05'5 8.7
2018-Jul-11 09:24N 34°16' E 135°03'4 8.9
2018-Jul-11 09:00N 34°20' E 135°05'22 9.3
2018-Jul-11 06:41N 34°35' E 135°23'1 7.5
2018-Jul-11 06:30N 34°36' E 135°24'2 1.7
2018-Jul-11 05:19N 34°34' E 135°26'0 0.0
2018-Jul-11 04:03N 34°34' E 135°26'0 0.0
2018-Jul-11 03:57N 34°34' E 135°26'2 0.7
2018-Jul-11 01:36N 34°36' E 135°25'4 0.2
2018-Jul-10 03:25N 34°35' E 135°20'511.1
2018-Jul-10 03:00N 34°39' E 135°16'3 5.2
2018-Jul-10 02:21N 34°42' E 135°15'0 0.0
2018-Jul-10 01:49N 34°42' E 135°15'0 0.0
2018-Jul-10 01:30N 34°42' E 135°15'0 0.0
2018-Jul-10 00:56N 34°42' E 135°15'0 0.0
2018-Jul-10 00:10N 34°42' E 135°15'0 0.0
2018-Jul-09 23:58N 34°42' E 135°15'0 0.0
2018-Jul-09 23:30N 34°42' E 135°15'0 0.4
2018-Jul-09 23:00N 34°42' E 135°15'4 8.1
2018-Jul-09 22:30N 34°38' E 135°17'8 0.2
2018-Jul-08 06:30N 34°31' E 135°20'  

Dump ship's entire track history